createdAt,value
2018-07-11T00:00:42.287Z,71.70
2018-07-11T00:03:09.179Z,71.65
2018-07-11T00:05:36.040Z,71.20
2018-07-11T00:08:02.920Z,70.95
2018-07-11T00:10:29.780Z,69.57
2018-07-11T00:12:56.626Z,68.71
2018-07-11T00:15:23.531Z,69.25
2018-07-11T00:17:50.404Z,69.16
2018-07-11T00:20:17.259Z,68.86
2018-07-11T00:22:44.111Z,69.46
2018-07-11T00:25:11.171Z,70.66
2018-07-11T00:27:38.036Z,70.25
2018-07-11T00:30:04.921Z,69.69
2018-07-11T00:32:31.807Z,69.82
2018-07-11T00:34:58.655Z,70.26
2018-07-11T00:37:25.917Z,69.33
2018-07-11T00:39:52.651Z,69.09
2018-07-11T00:42:19.511Z,69.32
2018-07-11T00:46:25.447Z,67.97
2018-07-11T00:48:52.335Z,67.70
2018-07-11T00:51:19.191Z,68.71
2018-07-11T00:53:48.659Z,71.43
2018-07-11T00:56:15.518Z,72.46
2018-07-11T00:58:48.044Z,72.55
2018-07-11T01:01:15.969Z,72.92
2018-07-11T01:03:48.759Z,70.97
2018-07-11T01:06:15.647Z,72.12
2018-07-11T01:08:42.526Z,72.61
2018-07-11T01:11:18.699Z,72.12
2018-07-11T01:13:46.679Z,72.75
2018-07-11T01:16:15.407Z,71.63
2018-07-11T01:18:55.027Z,70.97
2018-07-11T01:21:21.948Z,69.66
2018-07-11T01:23:48.847Z,69.82
2018-07-11T01:26:16.191Z,70.30
2018-07-11T01:28:43.047Z,69.75
2018-07-11T01:31:11.680Z,70.66
2018-07-11T01:33:38.536Z,70.97
2018-07-11T01:36:05.415Z,69.71
2018-07-11T01:38:32.315Z,71.38
2018-07-11T01:40:59.174Z,70.46
2018-07-11T01:43:26.035Z,70.67
2018-07-11T01:45:52.892Z,70.26
2018-07-11T01:48:19.739Z,69.41
2018-07-11T01:50:46.606Z,68.50
2018-07-11T01:53:13.463Z,68.96
2018-07-11T01:55:40.375Z,67.17
2018-07-11T01:58:07.288Z,68.04
2018-07-11T02:00:34.139Z,68.72
2018-07-11T02:03:00.983Z,68.50
2018-07-11T02:05:27.856Z,69.42
2018-07-11T02:07:55.110Z,68.99
2018-07-11T02:10:22.076Z,68.89
2018-07-11T02:12:48.998Z,69.28
2018-07-11T02:15:15.851Z,68.30
2018-07-11T02:17:42.722Z,68.87
2018-07-11T02:20:14.216Z,68.80
2018-07-11T02:22:41.135Z,68.95
2018-07-11T02:25:08.068Z,69.57
2018-07-11T02:27:35.220Z,69.66
2018-07-11T02:30:02.762Z,69.49
2018-07-11T02:32:29.896Z,70.37
2018-07-11T02:34:56.811Z,70.03
2018-07-11T02:37:23.671Z,70.60
2018-07-11T02:39:50.523Z,72.11
2018-07-11T02:42:17.463Z,71.99
2018-07-11T02:44:44.324Z,72.57
2018-07-11T02:47:32.835Z,73.13
2018-07-11T02:50:00.735Z,73.49
2018-07-11T02:52:27.599Z,72.60
2018-07-11T02:54:54.509Z,73.64
2018-07-11T02:57:21.370Z,73.25
2018-07-11T02:59:48.308Z,73.74
2018-07-11T03:02:15.164Z,73.83
2018-07-11T03:04:42.039Z,72.37
2018-07-11T03:07:09.723Z,71.65
2018-07-11T03:09:37.119Z,72.61
2018-07-11T03:12:04.833Z,73.69
2018-07-11T03:14:32.576Z,73.53
2018-07-11T03:16:59.464Z,73.94
2018-07-11T03:19:26.362Z,73.76
2018-07-11T03:21:53.338Z,73.04
2018-07-11T03:24:20.234Z,73.50
2018-07-11T03:26:47.084Z,74.24
2018-07-11T03:29:14.424Z,74.60
2018-07-11T03:31:41.279Z,74.19
2018-07-11T03:34:08.578Z,73.79
2018-07-11T03:36:35.447Z,73.90
2018-07-11T03:39:02.343Z,74.07
2018-07-11T03:41:29.199Z,73.40
2018-07-11T03:43:56.104Z,73.05
2018-07-11T03:46:22.959Z,73.55
2018-07-11T03:48:49.842Z,72.75
2018-07-11T03:51:16.695Z,72.70
2018-07-11T03:53:43.614Z,72.61
2018-07-11T03:56:10.427Z,73.41
2018-07-11T03:58:37.295Z,72.97
2018-07-11T04:01:04.151Z,72.69
2018-07-11T04:03:31.027Z,72.03
2018-07-11T04:05:57.895Z,72.08
2018-07-11T04:08:24.795Z,72.45
2018-07-11T04:10:51.681Z,72.51
2018-07-11T04:13:18.999Z,73.66
2018-07-11T04:15:45.921Z,73.17
2018-07-11T04:18:25.630Z,72.65
2018-07-11T04:20:52.532Z,72.50
2018-07-11T04:23:19.419Z,72.85
2018-07-11T04:25:46.280Z,72.87
2018-07-11T04:28:13.151Z,73.14
2018-07-11T04:30:40.071Z,74.30
2018-07-11T04:33:06.960Z,74.32
2018-07-11T04:35:33.867Z,73.97
2018-07-11T04:38:00.736Z,73.57
2018-07-11T04:40:28.142Z,74.38
2018-07-11T04:42:55.003Z,73.32
2018-07-11T04:45:24.456Z,73.40
2018-07-11T04:47:51.324Z,72.89
2018-07-11T04:50:18.844Z,73.71
2018-07-11T04:52:46.158Z,72.89
2018-07-11T04:55:12.942Z,73.58
2018-07-11T04:57:39.795Z,73.46
2018-07-11T05:00:06.926Z,73.57
2018-07-11T05:02:33.879Z,72.02
2018-07-11T05:05:03.879Z,70.78
2018-07-11T05:07:32.690Z,72.25
2018-07-11T05:09:59.839Z,71.99
2018-07-11T05:12:26.689Z,71.26
2018-07-11T05:14:53.547Z,71.32
2018-07-11T05:17:20.443Z,71.12
2018-07-11T05:19:47.306Z,70.85
2018-07-11T05:22:15.334Z,69.18
2018-07-11T05:24:54.191Z,68.67
2018-07-11T05:27:21.065Z,66.01
2018-07-11T05:29:48.067Z,67.49
2018-07-11T05:32:15.821Z,67.25
2018-07-11T05:34:45.754Z,64.76
2018-07-11T05:37:12.807Z,61.56
2018-07-11T05:39:39.690Z,64.09
2018-07-11T05:42:06.543Z,63.92
2018-07-11T05:44:33.407Z,61.37
2018-07-11T05:47:03.861Z,59.47
2018-07-11T05:49:30.923Z,60.29
2018-07-11T05:51:57.886Z,59.53
2018-07-11T05:54:24.731Z,60.34
2018-07-11T05:56:51.607Z,61.28
2018-07-11T05:59:18.479Z,60.56
2018-07-11T06:01:45.351Z,59.32
2018-07-11T06:04:12.250Z,57.97
2018-07-11T06:06:39.114Z,59.10
2018-07-11T06:09:06.263Z,59.60
2018-07-11T06:11:33.128Z,57.75
2018-07-11T06:13:59.988Z,58.76
2018-07-11T06:16:26.862Z,58.07
2018-07-11T06:18:53.689Z,57.72
2018-07-11T06:21:22.233Z,56.95
2018-07-11T06:23:49.116Z,56.34
2018-07-11T06:26:17.822Z,57.20
2018-07-11T06:28:44.671Z,58.33
2018-07-11T06:31:11.555Z,57.27
2018-07-11T06:33:38.444Z,55.43
2018-07-11T06:36:05.319Z,56.14
2018-07-11T06:38:32.166Z,56.65
2018-07-11T06:40:59.007Z,55.12
2018-07-11T06:43:25.888Z,56.42
2018-07-11T06:45:53.054Z,57.01
2018-07-11T06:48:19.899Z,55.85
2018-07-11T06:50:46.751Z,55.80
2018-07-11T06:53:13.657Z,53.93
2018-07-11T06:55:40.521Z,50.81
2018-07-11T06:58:07.490Z,51.98
2018-07-11T07:00:34.664Z,53.44
2018-07-11T07:03:01.514Z,55.63
2018-07-11T07:05:28.463Z,55.46
2018-07-11T07:07:55.383Z,55.14
2018-07-11T07:10:22.231Z,56.93
2018-07-11T07:12:49.115Z,55.94
2018-07-11T07:15:16.055Z,55.19
2018-07-11T07:17:42.992Z,56.77
2018-07-11T07:20:09.854Z,57.77
2018-07-11T07:22:36.957Z,55.39
2018-07-11T07:25:03.754Z,53.90
2018-07-11T07:27:31.608Z,55.64
2018-07-11T07:29:58.464Z,54.17
2018-07-11T07:32:25.440Z,53.87
2018-07-11T07:34:52.440Z,57.32
2018-07-11T07:37:19.309Z,57.98
2018-07-11T07:39:46.176Z,57.07
2018-07-11T07:42:13.043Z,57.77
2018-07-11T07:44:39.970Z,55.92
2018-07-11T07:47:26.496Z,56.66
2018-07-11T07:49:53.728Z,55.82
2018-07-11T07:52:20.729Z,56.49
2018-07-11T07:54:48.349Z,55.34
2018-07-11T07:57:15.434Z,56.46
2018-07-11T07:59:43.450Z,55.43
2018-07-11T08:02:15.581Z,55.00
2018-07-11T08:04:45.857Z,55.48
2018-07-11T08:07:12.038Z,52.20
2018-07-11T08:09:38.939Z,50.82
2018-07-11T08:12:05.812Z,47.80
2018-07-11T08:14:32.697Z,48.04
2018-07-11T08:16:59.559Z,49.81
2018-07-11T08:19:26.412Z,46.79
2018-07-11T08:21:53.291Z,50.25
2018-07-11T08:24:32.779Z,51.02
2018-07-11T08:27:11.334Z,50.55
2018-07-11T08:29:53.951Z,54.48
2018-07-11T08:32:46.194Z,53.52
2018-07-11T08:35:25.552Z,53.21
2018-07-11T08:38:36.623Z,52.43
2018-07-11T08:41:31.707Z,50.15
2018-07-11T08:44:18.259Z,51.96
2018-07-11T08:47:14.098Z,51.44
2018-07-11T08:49:51.979Z,52.37
2018-07-11T08:52:47.195Z,52.29
2018-07-11T08:55:30.227Z,50.96
2018-07-11T08:58:10.671Z,48.55
2018-07-11T09:00:49.163Z,49.85
2018-07-11T09:03:37.746Z,51.96
2018-07-11T09:06:14.464Z,51.60
2018-07-11T09:09:15.579Z,51.32
2018-07-11T09:11:56.154Z,52.41
2018-07-11T09:14:48.267Z,52.40
2018-07-11T09:17:43.534Z,52.33
2018-07-11T09:20:35.878Z,50.24
2018-07-11T09:23:29.955Z,49.13
2018-07-11T09:25:56.831Z,48.70
2018-07-11T09:28:23.835Z,50.49
2018-07-11T09:30:50.684Z,50.45
2018-07-11T09:33:17.580Z,52.51
2018-07-11T09:35:44.423Z,51.68
2018-07-11T09:38:11.268Z,50.25
2018-07-11T09:40:38.207Z,51.76
2018-07-11T09:43:05.052Z,49.72
2018-07-11T09:45:31.958Z,51.10
2018-07-11T09:47:58.800Z,49.27
2018-07-11T09:50:25.779Z,48.38
2018-07-11T09:52:52.654Z,49.07
2018-07-11T09:55:19.528Z,49.37
2018-07-11T09:57:46.465Z,48.26
2018-07-11T10:00:19.114Z,50.80
2018-07-11T10:02:46.147Z,50.48
2018-07-11T10:05:13.046Z,50.06
2018-07-11T10:07:39.855Z,49.14
2018-07-11T10:10:06.716Z,49.84
2018-07-11T10:12:33.641Z,51.73
2018-07-11T10:15:00.688Z,51.50
2018-07-11T10:17:27.580Z,48.20
2018-07-11T10:19:54.456Z,44.49
2018-07-11T10:22:21.315Z,43.51
2018-07-11T10:24:48.179Z,40.85
2018-07-11T10:27:15.064Z,38.00
2018-07-11T10:29:42.583Z,38.86
2018-07-11T10:32:11.587Z,41.33
2018-07-11T10:34:39.495Z,44.52
2018-07-11T10:37:06.452Z,46.44
2018-07-11T10:39:34.699Z,50.11
2018-07-11T10:42:01.627Z,50.88
2018-07-11T10:44:28.636Z,49.70
2018-07-11T10:47:03.611Z,51.30
2018-07-11T10:49:32.501Z,50.20
2018-07-11T10:51:59.386Z,50.50
2018-07-11T10:54:26.311Z,49.60
2018-07-11T10:56:53.327Z,50.42
2018-07-11T10:59:20.252Z,49.11
2018-07-11T11:01:48.197Z,52.28
2018-07-11T11:04:18.236Z,53.30
2018-07-11T11:06:45.150Z,52.08
2018-07-11T11:09:15.872Z,52.15
2018-07-11T11:11:43.811Z,51.29
2018-07-11T11:14:10.770Z,51.58
2018-07-11T11:16:38.771Z,52.26
2018-07-11T11:19:07.800Z,51.33
2018-07-11T11:21:34.763Z,51.36
2018-07-11T11:24:01.745Z,50.59
2018-07-11T11:26:28.699Z,49.09
2018-07-11T11:28:55.654Z,50.90
2018-07-11T11:31:23.870Z,50.06
2018-07-11T11:33:50.792Z,49.71
2018-07-11T11:36:17.659Z,49.26
2018-07-11T11:38:47.639Z,47.72
2018-07-11T11:41:17.559Z,48.62
2018-07-11T11:43:46.615Z,47.37
2018-07-11T11:46:13.538Z,49.84
2018-07-11T11:48:40.955Z,49.64
2018-07-11T11:51:07.894Z,50.50
2018-07-11T11:53:34.750Z,50.97
2018-07-11T11:56:01.621Z,52.81
2018-07-11T11:58:28.508Z,51.43
2018-07-11T12:00:55.345Z,51.26
2018-07-11T12:03:22.195Z,50.02
2018-07-11T12:05:49.039Z,51.96
2018-07-11T12:08:15.909Z,49.34
2018-07-11T12:10:42.843Z,48.81
2018-07-11T12:13:09.691Z,49.15
2018-07-11T12:15:36.543Z,45.34
2018-07-11T12:18:03.448Z,46.20
2018-07-11T12:20:30.329Z,47.14
2018-07-11T12:22:57.200Z,45.31
2018-07-11T12:25:24.095Z,46.05
2018-07-11T12:27:50.952Z,45.51
2018-07-11T12:30:21.659Z,44.50
2018-07-11T12:32:48.529Z,43.88
2018-07-11T12:35:15.408Z,45.46
2018-07-11T12:37:42.270Z,44.87
2018-07-11T12:40:09.152Z,44.59
2018-07-11T12:42:36.027Z,44.72
2018-07-11T12:45:02.879Z,44.39
2018-07-11T12:47:35.364Z,45.25
2018-07-11T12:50:02.268Z,44.98
2018-07-11T12:52:29.120Z,41.85
2018-07-11T12:54:55.979Z,41.88
2018-07-11T12:57:23.972Z,42.37
2018-07-11T12:59:50.844Z,41.89
2018-07-11T13:02:17.716Z,40.52
2018-07-11T13:04:44.615Z,40.70
2018-07-11T13:07:11.583Z,41.58
2018-07-11T13:09:38.459Z,40.85
2018-07-11T13:12:05.746Z,38.96
2018-07-11T13:14:32.619Z,39.04
2018-07-11T13:16:59.504Z,39.81
2018-07-11T13:19:26.374Z,38.10
2018-07-11T13:21:54.244Z,39.06
2018-07-11T13:24:21.130Z,37.41
2018-07-11T13:26:48.071Z,37.91
2018-07-11T13:29:14.941Z,37.00
2018-07-11T13:31:41.820Z,37.69
2018-07-11T13:34:08.671Z,38.10
2018-07-11T13:36:35.851Z,36.79
2018-07-11T13:39:04.633Z,37.97
2018-07-11T13:41:31.603Z,35.33
2018-07-11T13:43:59.559Z,37.27
2018-07-11T13:46:26.502Z,36.60
2018-07-11T13:48:53.321Z,38.12
2018-07-11T13:51:20.198Z,38.43
2018-07-11T13:53:47.056Z,38.39
2018-07-11T13:56:13.939Z,37.72
2018-07-11T13:58:41.182Z,36.43
2018-07-11T14:01:08.047Z,36.58
2018-07-11T14:03:34.919Z,35.11
2018-07-11T14:06:01.780Z,34.56
2018-07-11T14:08:28.646Z,35.64
2018-07-11T14:10:55.528Z,34.74
2018-07-11T14:13:22.419Z,37.38
2018-07-11T14:15:49.280Z,36.17
2018-07-11T14:18:16.141Z,37.49
2018-07-11T14:20:43.010Z,35.49
2018-07-11T14:23:09.934Z,36.17
2018-07-11T14:25:38.303Z,35.14
2018-07-11T14:28:05.191Z,33.76
2018-07-11T14:30:32.564Z,32.95
2018-07-11T14:33:03.717Z,33.25
2018-07-11T14:35:31.276Z,33.17
2018-07-11T14:37:58.168Z,33.70
2018-07-11T14:40:25.043Z,32.81
2018-07-11T14:42:51.915Z,35.52
2018-07-11T14:45:18.785Z,35.34
2018-07-11T14:47:51.542Z,35.84
2018-07-11T14:50:21.527Z,36.80
2018-07-11T14:52:48.412Z,37.39
2018-07-11T14:55:15.287Z,36.00
2018-07-11T14:57:42.163Z,40.40
2018-07-11T15:00:09.154Z,41.05
2018-07-11T15:02:36.003Z,40.97
2018-07-11T15:05:02.868Z,42.97
2018-07-11T15:07:29.728Z,42.31
2018-07-11T15:09:56.580Z,42.46
2018-07-11T15:12:23.442Z,41.23
2018-07-11T15:14:50.298Z,39.64
2018-07-11T15:17:17.188Z,39.43
2018-07-11T15:19:44.047Z,40.30
2018-07-11T15:22:11.151Z,38.82
2018-07-11T15:24:38.007Z,39.10
2018-07-11T15:27:05.863Z,40.22
2018-07-11T15:29:32.743Z,40.93
2018-07-11T15:32:00.098Z,40.42
2018-07-11T15:34:27.006Z,41.71
2018-07-11T15:36:53.848Z,41.26
2018-07-11T15:39:20.738Z,43.96
2018-07-11T15:41:47.608Z,40.45
2018-07-11T15:44:14.487Z,40.47
2018-07-11T15:46:41.375Z,39.96
2018-07-11T15:49:08.459Z,38.75
2018-07-11T15:51:36.079Z,40.95
2018-07-11T15:54:03.019Z,35.52
2018-07-11T15:56:29.879Z,36.25
2018-07-11T15:59:04.658Z,34.21
2018-07-11T16:01:32.143Z,37.25
2018-07-11T16:03:59.011Z,36.49
2018-07-11T16:06:25.883Z,36.71
2018-07-11T16:08:52.752Z,37.74
2018-07-11T16:11:19.621Z,39.16
2018-07-11T16:13:47.506Z,39.16
2018-07-11T16:16:14.584Z,40.92
2018-07-11T16:18:41.430Z,41.79
2018-07-11T16:21:08.390Z,41.47
2018-07-11T16:23:35.478Z,40.76
2018-07-11T16:26:02.455Z,41.91
2018-07-11T16:28:29.391Z,39.43
2018-07-11T16:30:56.329Z,40.64
2018-07-11T16:33:23.318Z,41.99
2018-07-11T16:35:50.241Z,40.94
2018-07-11T16:38:17.374Z,39.54
2018-07-11T16:40:44.310Z,39.60
2018-07-11T16:43:11.258Z,40.04
2018-07-11T16:45:38.233Z,35.09
2018-07-11T16:48:05.198Z,30.11
2018-07-11T16:50:32.129Z,29.32
2018-07-11T16:52:59.598Z,31.19
2018-07-11T16:55:31.974Z,32.88
2018-07-11T16:57:58.906Z,32.64
2018-07-11T17:00:30.890Z,34.14
2018-07-11T17:03:04.386Z,34.98
2018-07-11T17:05:50.028Z,34.02
2018-07-11T17:08:20.625Z,36.52
2018-07-11T17:10:47.575Z,31.63
2018-07-11T17:13:19.934Z,32.85
2018-07-11T17:15:49.487Z,35.05
2018-07-11T17:18:27.996Z,36.90
2018-07-11T17:20:55.387Z,39.19
2018-07-11T17:23:22.412Z,41.65
2018-07-11T17:25:49.374Z,41.05
2018-07-11T17:28:16.343Z,41.50
2018-07-11T17:30:44.009Z,41.72
2018-07-11T17:33:12.008Z,42.33
2018-07-11T17:35:52.911Z,43.16
2018-07-11T17:38:24.542Z,43.86
2018-07-11T17:40:52.271Z,43.52
2018-07-11T17:43:29.543Z,42.47
2018-07-11T17:45:56.452Z,42.95
2018-07-11T17:48:37.506Z,41.71
2018-07-11T17:51:11.987Z,41.52
2018-07-11T17:53:43.371Z,38.75
2018-07-11T17:56:20.697Z,40.04
2018-07-11T17:58:53.110Z,40.29
2018-07-11T18:01:28.032Z,41.58
2018-07-11T18:04:01.341Z,41.45
2018-07-11T18:06:33.726Z,42.72
2018-07-11T18:09:06.498Z,43.24
2018-07-11T18:11:59.486Z,42.94
2018-07-11T18:14:32.467Z,43.39
2018-07-11T18:17:07.192Z,43.53
2018-07-11T18:19:44.917Z,43.63
2018-07-11T18:22:34.527Z,44.41
2018-07-11T18:25:10.302Z,44.92
2018-07-11T18:27:48.496Z,44.82
2018-07-11T18:30:25.051Z,46.39
2018-07-11T18:33:02.691Z,44.81
2018-07-11T18:35:45.695Z,45.71
2018-07-11T18:38:19.319Z,48.43
2018-07-11T18:41:02.607Z,48.19
2018-07-11T18:43:57.251Z,50.15
2018-07-11T18:46:35.874Z,48.38
2018-07-11T18:49:18.083Z,48.21
2018-07-11T18:52:03.236Z,49.56
2018-07-11T18:54:55.531Z,51.86
2018-07-11T18:57:29.471Z,51.41
2018-07-11T19:00:20.061Z,52.50
2018-07-11T19:02:59.762Z,53.14
2018-07-11T19:05:51.952Z,53.30
2018-07-11T19:08:31.346Z,52.02
2018-07-11T19:11:01.924Z,54.12
2018-07-11T19:13:32.028Z,52.99
2018-07-11T19:16:16.931Z,55.24
2018-07-11T19:18:55.395Z,52.15
2018-07-11T19:21:37.327Z,53.16
2018-07-11T19:24:11.724Z,52.85
2018-07-11T19:26:58.580Z,53.42
2018-07-11T19:29:45.899Z,53.76
2018-07-11T19:32:37.461Z,52.32
2018-07-11T19:35:47.326Z,53.25
2018-07-11T19:38:27.649Z,54.31
2018-07-11T19:41:17.926Z,55.14
2018-07-11T19:44:12.179Z,55.23
2018-07-11T19:46:58.296Z,56.81
2018-07-11T19:50:04.458Z,56.99
2018-07-11T19:52:47.415Z,57.32
2018-07-11T19:55:41.670Z,56.46
2018-07-11T19:58:10.723Z,54.34
2018-07-11T20:00:38.243Z,55.07
2018-07-11T20:03:05.259Z,53.91
2018-07-11T20:05:32.627Z,55.01
2018-07-11T20:08:00.323Z,57.29
2018-07-11T20:10:27.326Z,58.57
2018-07-11T20:12:54.451Z,58.04
2018-07-11T20:15:23.433Z,58.90
2018-07-11T20:17:52.459Z,57.92
2018-07-11T20:20:21.052Z,58.34
2018-07-11T20:22:48.048Z,57.08
2018-07-11T20:25:14.947Z,56.55
2018-07-11T20:27:41.828Z,56.69
2018-07-11T20:30:08.741Z,56.92
2018-07-11T20:32:35.631Z,56.44
2018-07-11T20:35:02.664Z,55.01
2018-07-11T20:37:29.601Z,56.26
2018-07-11T20:39:56.700Z,55.88
2018-07-11T20:42:23.699Z,55.57
2018-07-11T20:44:50.621Z,55.38
2018-07-11T20:47:17.546Z,55.24
2018-07-11T20:49:44.458Z,56.58
2018-07-11T20:52:12.342Z,57.09
2018-07-11T20:54:39.234Z,57.23
2018-07-11T20:57:06.203Z,58.12
2018-07-11T20:59:44.713Z,58.35
2018-07-11T21:02:23.291Z,58.18
2018-07-11T21:05:24.508Z,58.10
2018-07-11T21:08:03.047Z,58.40
2018-07-11T21:10:50.857Z,58.88
2018-07-11T21:13:34.478Z,58.71
2018-07-11T21:16:13.032Z,59.22
2018-07-11T21:18:51.463Z,59.71
2018-07-11T21:21:18.347Z,60.42
2018-07-11T21:23:45.237Z,60.87
2018-07-11T21:26:12.143Z,60.20
2018-07-11T21:28:40.163Z,59.87
2018-07-11T21:31:07.090Z,60.46
2018-07-11T21:33:34.045Z,60.04
2018-07-11T21:36:00.916Z,58.11
2018-07-11T21:38:27.831Z,58.37
2018-07-11T21:40:54.708Z,59.14
2018-07-11T21:43:21.649Z,59.96
2018-07-11T21:45:48.644Z,59.58
2018-07-11T21:48:15.538Z,59.35
2018-07-11T21:50:42.451Z,58.90
2018-07-11T21:53:09.343Z,57.66
2018-07-11T21:55:37.231Z,59.22
2018-07-11T21:58:04.132Z,59.88
2018-07-11T22:00:33.575Z,60.42
2018-07-11T22:03:00.475Z,61.64
2018-07-11T22:05:28.404Z,61.64
2018-07-11T22:07:55.357Z,61.23
2018-07-11T22:10:22.229Z,58.95
2018-07-11T22:12:49.149Z,60.69
2018-07-11T22:15:16.084Z,59.29
2018-07-11T22:17:54.831Z,59.60
2018-07-11T22:20:20.893Z,60.16
2018-07-11T22:22:46.973Z,60.60
2018-07-11T22:25:13.063Z,60.86
2018-07-11T22:27:39.839Z,61.73
2018-07-11T22:30:05.930Z,61.69
2018-07-11T22:32:32.028Z,61.41
2018-07-11T22:34:58.098Z,61.01
2018-07-11T22:37:24.258Z,61.60
2018-07-11T22:39:50.333Z,60.81
2018-07-11T22:42:16.424Z,61.23
2018-07-11T22:44:42.572Z,61.19
2018-07-11T22:47:08.705Z,61.86
2018-07-11T22:49:38.112Z,61.15
2018-07-11T22:52:05.240Z,61.55
2018-07-11T22:54:31.319Z,60.93
2018-07-11T22:56:57.412Z,59.98
2018-07-11T22:59:23.495Z,60.15
2018-07-11T23:01:49.742Z,60.44
2018-07-11T23:04:15.852Z,61.46
2018-07-11T23:06:41.942Z,61.13
2018-07-11T23:09:08.031Z,60.55
2018-07-11T23:11:34.148Z,60.46
2018-07-11T23:14:00.220Z,59.90
2018-07-11T23:16:26.294Z,60.43
2018-07-11T23:18:52.467Z,60.46
2018-07-11T23:21:18.636Z,60.56
2018-07-11T23:23:44.761Z,60.36
2018-07-11T23:26:10.937Z,59.58
2018-07-11T23:28:40.153Z,59.55
2018-07-11T23:31:06.311Z,59.36
2018-07-11T23:33:34.513Z,60.03
2018-07-11T23:36:00.664Z,59.46
2018-07-11T23:38:26.763Z,59.29
2018-07-11T23:40:54.747Z,58.96
2018-07-11T23:43:21.250Z,57.94
2018-07-11T23:45:47.422Z,58.41
2018-07-11T23:48:15.603Z,58.89
2018-07-11T23:50:41.727Z,59.16
2018-07-11T23:53:08.980Z,59.24
2018-07-11T23:55:36.237Z,60.48
2018-07-11T23:58:03.197Z,60.47
